createdAt,value
2018-08-18T00:00:21.169Z,99.90
2018-08-18T00:02:50.039Z,99.90
2018-08-18T00:05:19.050Z,99.90
2018-08-18T00:07:47.723Z,99.90
2018-08-18T00:10:18.108Z,99.90
2018-08-18T00:12:46.691Z,99.90
2018-08-18T00:15:15.466Z,99.90
2018-08-18T00:17:44.053Z,99.90
2018-08-18T00:20:14.803Z,99.90
2018-08-18T00:22:43.367Z,99.90
2018-08-18T00:25:12.036Z,99.90
2018-08-18T00:27:40.611Z,99.90
2018-08-18T00:30:15.466Z,99.90
2018-08-18T00:32:44.598Z,99.90
2018-08-18T00:35:13.851Z,99.90
2018-08-18T00:37:42.602Z,99.90
2018-08-18T00:40:12.110Z,99.90
2018-08-18T00:42:41.190Z,99.90
2018-08-18T00:45:11.372Z,99.90
2018-08-18T00:47:40.324Z,99.90
2018-08-18T00:50:10.012Z,99.90
2018-08-18T00:52:39.045Z,99.90
2018-08-18T00:55:07.718Z,99.90
2018-08-18T00:57:36.308Z,99.90
2018-08-18T01:00:06.575Z,99.90
2018-08-18T01:02:35.348Z,99.90
2018-08-18T01:05:04.456Z,99.90
2018-08-18T01:07:33.523Z,99.90
2018-08-18T01:10:02.939Z,99.90
2018-08-18T01:12:31.765Z,99.90
2018-08-18T01:15:00.258Z,99.90
2018-08-18T01:17:28.671Z,99.90
2018-08-18T01:19:58.260Z,99.90
2018-08-18T01:22:26.830Z,99.90
2018-08-18T01:24:55.394Z,99.90
2018-08-18T01:27:24.095Z,99.90
2018-08-18T01:30:00.584Z,99.90
2018-08-18T01:32:30.944Z,99.90
2018-08-18T01:34:59.479Z,99.90
2018-08-18T01:37:28.721Z,99.90
2018-08-18T01:39:57.244Z,99.90
2018-08-18T01:42:25.703Z,99.90
2018-08-18T01:44:55.366Z,99.90
2018-08-18T01:47:23.832Z,99.90
2018-08-18T01:49:52.302Z,99.90
2018-08-18T01:52:22.266Z,99.90
2018-08-18T01:54:50.788Z,99.90
2018-08-18T01:57:20.402Z,99.90
2018-08-18T01:59:50.106Z,99.90
2018-08-18T02:02:21.052Z,99.90
2018-08-18T02:04:50.122Z,99.90
2018-08-18T02:07:30.526Z,99.90
2018-08-18T02:09:59.109Z,99.90
2018-08-18T02:12:28.499Z,99.90
2018-08-18T02:14:59.311Z,99.90
2018-08-18T02:17:37.696Z,99.90
2018-08-18T02:20:08.343Z,99.90
2018-08-18T02:22:36.738Z,99.90
2018-08-18T02:25:06.220Z,99.90
2018-08-18T02:27:34.979Z,99.90
2018-08-18T02:30:15.859Z,99.90
2018-08-18T02:32:44.391Z,99.90
2018-08-18T02:35:13.043Z,99.90
2018-08-18T02:37:41.532Z,99.90
2018-08-18T02:40:12.515Z,99.90
2018-08-18T02:42:41.207Z,99.90
2018-08-18T02:45:10.857Z,99.90
2018-08-18T02:47:39.598Z,99.90
2018-08-18T02:50:12.790Z,99.90
2018-08-18T02:52:41.333Z,99.90
2018-08-18T02:55:11.389Z,99.90
2018-08-18T02:57:41.134Z,99.90
2018-08-18T03:00:23.555Z,99.90
2018-08-18T03:02:52.130Z,99.90
2018-08-18T03:05:20.633Z,99.90
2018-08-18T03:07:50.198Z,99.90
2018-08-18T03:10:26.387Z,99.90
2018-08-18T03:12:58.560Z,99.90
2018-08-18T03:17:02.402Z,99.90
2018-08-18T03:19:31.087Z,99.90
2018-08-18T03:21:59.661Z,99.90
2018-08-18T03:24:28.428Z,99.90
2018-08-18T03:26:57.992Z,99.90
2018-08-18T03:29:27.877Z,99.90
2018-08-18T03:31:56.767Z,99.90
2018-08-18T03:34:25.253Z,99.90
2018-08-18T03:36:58.142Z,99.90
2018-08-18T03:39:31.811Z,99.90
2018-08-18T03:42:02.788Z,99.90
2018-08-18T03:44:31.318Z,99.90
2018-08-18T03:46:59.819Z,99.90
2018-08-18T03:49:28.531Z,99.90
2018-08-18T03:51:57.039Z,99.90
2018-08-18T03:54:25.571Z,99.90
2018-08-18T03:56:54.493Z,99.90
2018-08-18T03:59:23.027Z,99.90
2018-08-18T04:01:59.365Z,99.90
2018-08-18T04:04:29.256Z,99.90
2018-08-18T04:06:58.893Z,99.90
2018-08-18T04:09:31.638Z,99.90
2018-08-18T04:12:01.819Z,99.90
2018-08-18T04:14:35.643Z,99.90
2018-08-18T04:17:04.252Z,99.90
2018-08-18T04:19:32.803Z,99.90
2018-08-18T04:22:01.425Z,99.90
2018-08-18T04:24:35.312Z,99.90
2018-08-18T04:27:03.903Z,99.90
2018-08-18T04:29:32.399Z,99.90
2018-08-18T04:32:01.882Z,99.90
2018-08-18T04:34:30.351Z,99.90
2018-08-18T04:37:00.187Z,99.90
2018-08-18T04:39:28.707Z,99.90
2018-08-18T04:41:57.363Z,99.90
2018-08-18T04:44:25.879Z,99.90
2018-08-18T04:46:54.387Z,99.90
2018-08-18T04:49:23.037Z,99.90
2018-08-18T04:51:51.861Z,99.90
2018-08-18T04:54:20.347Z,99.90
2018-08-18T04:56:49.061Z,99.90
2018-08-18T04:59:17.812Z,99.90
2018-08-18T05:01:46.418Z,99.90
2018-08-18T05:04:14.981Z,99.90
2018-08-18T05:06:44.102Z,99.90
2018-08-18T05:09:14.230Z,99.90
2018-08-18T05:11:42.882Z,99.90
2018-08-18T05:14:11.320Z,99.90
2018-08-18T05:16:39.970Z,99.90
2018-08-18T05:19:09.320Z,99.90
2018-08-18T05:21:37.981Z,99.90
2018-08-18T05:24:21.526Z,99.90
2018-08-18T05:26:50.833Z,99.90
2018-08-18T05:29:20.322Z,99.90
2018-08-18T05:31:48.840Z,99.90
2018-08-18T05:34:17.384Z,99.90
2018-08-18T05:36:45.970Z,99.90
2018-08-18T05:39:14.670Z,99.90
2018-08-18T05:41:43.356Z,99.90
2018-08-18T05:44:11.974Z,99.90
2018-08-18T05:46:40.479Z,99.90
2018-08-18T05:49:14.311Z,99.90
2018-08-18T05:51:44.965Z,99.90
2018-08-18T05:54:15.099Z,99.90
2018-08-18T05:56:45.156Z,99.90
2018-08-18T05:59:13.696Z,99.90
2018-08-18T06:01:42.719Z,99.90
2018-08-18T06:04:13.577Z,99.90
2018-08-18T06:06:44.088Z,99.90
2018-08-18T06:09:14.040Z,99.90
2018-08-18T06:11:42.789Z,99.90
2018-08-18T06:14:12.478Z,99.90
2018-08-18T06:16:41.739Z,99.90
2018-08-18T06:19:10.397Z,99.90
2018-08-18T06:21:40.125Z,99.90
2018-08-18T06:24:08.747Z,99.90
2018-08-18T06:26:37.482Z,99.90
2018-08-18T06:29:06.117Z,99.90
2018-08-18T06:31:40.706Z,99.90
2018-08-18T06:34:09.249Z,99.90
2018-08-18T06:36:37.778Z,99.90
2018-08-18T06:39:06.910Z,99.90
2018-08-18T06:41:35.421Z,99.90
2018-08-18T06:44:04.253Z,99.90
2018-08-18T06:46:33.066Z,99.90
2018-08-18T06:49:01.574Z,99.90
2018-08-18T06:51:30.188Z,99.90
2018-08-18T06:53:58.756Z,99.90
2018-08-18T06:56:27.308Z,99.90
2018-08-18T06:59:00.131Z,99.90
2018-08-18T07:01:28.595Z,99.90
2018-08-18T07:03:57.338Z,99.90
2018-08-18T07:06:25.849Z,99.90
2018-08-18T07:08:55.211Z,99.90
2018-08-18T07:11:23.867Z,99.90
2018-08-18T07:13:52.496Z,99.90
2018-08-18T07:16:21.065Z,99.90
2018-08-18T07:18:49.613Z,99.90
2018-08-18T07:21:18.192Z,99.90
2018-08-18T07:23:46.692Z,99.90
2018-08-18T07:26:15.291Z,99.90
2018-08-18T07:28:43.879Z,99.90
2018-08-18T07:31:12.370Z,99.90
2018-08-18T07:33:40.943Z,99.90
2018-08-18T07:36:09.412Z,99.90
2018-08-18T07:38:37.990Z,99.90
2018-08-18T07:41:06.646Z,99.90
2018-08-18T07:43:35.474Z,99.90
2018-08-18T07:46:05.921Z,99.90
2018-08-18T07:48:34.544Z,99.90
2018-08-18T07:51:03.094Z,99.90
2018-08-18T07:53:31.648Z,99.90
2018-08-18T07:56:00.252Z,99.90
2018-08-18T07:58:29.400Z,99.90
2018-08-18T08:00:59.648Z,99.90
2018-08-18T08:03:28.292Z,99.90
2018-08-18T08:05:56.838Z,99.90
2018-08-18T08:08:29.239Z,99.90
2018-08-18T08:11:02.042Z,99.90
2018-08-18T08:13:30.928Z,99.90
2018-08-18T08:15:59.593Z,99.90
2018-08-18T08:18:28.228Z,99.90
2018-08-18T08:20:56.895Z,99.90
2018-08-18T08:23:25.627Z,99.90
2018-08-18T08:25:54.349Z,99.90
2018-08-18T08:28:22.894Z,99.90
2018-08-18T08:30:51.491Z,99.90
2018-08-18T08:33:32.780Z,99.90
2018-08-18T08:36:03.342Z,99.90
2018-08-18T08:38:43.113Z,99.90
2018-08-18T08:41:12.663Z,99.90
2018-08-18T08:43:41.457Z,99.90
2018-08-18T08:46:10.046Z,99.90
2018-08-18T08:48:38.638Z,99.90
2018-08-18T08:51:07.360Z,99.90
2018-08-18T08:53:36.134Z,99.90
2018-08-18T08:56:04.749Z,99.90
2018-08-18T08:58:35.675Z,99.90
2018-08-18T09:01:04.315Z,99.90
2018-08-18T09:03:33.662Z,99.90
2018-08-18T09:06:02.538Z,99.90
2018-08-18T09:08:31.175Z,99.90
2018-08-18T09:10:59.740Z,99.90
2018-08-18T09:13:28.349Z,99.90
2018-08-18T09:15:57.418Z,99.90
2018-08-18T09:18:26.771Z,99.90
2018-08-18T09:20:55.599Z,99.90
2018-08-18T09:23:24.560Z,99.90
2018-08-18T09:25:53.624Z,99.90
2018-08-18T09:28:22.251Z,99.90
2018-08-18T09:30:50.891Z,99.90
2018-08-18T09:33:22.800Z,99.90
2018-08-18T09:36:00.725Z,99.90
2018-08-18T09:38:29.346Z,99.90
2018-08-18T09:40:58.297Z,99.90
2018-08-18T09:43:26.861Z,99.90
2018-08-18T09:45:57.917Z,99.90
2018-08-18T09:48:27.363Z,99.90
2018-08-18T09:50:57.593Z,99.90
2018-08-18T09:53:26.248Z,99.90
2018-08-18T09:55:54.907Z,99.90
2018-08-18T09:58:23.584Z,99.90
2018-08-18T10:00:52.268Z,99.90
2018-08-18T10:03:20.935Z,99.90
2018-08-18T10:05:49.907Z,99.90
2018-08-18T10:08:19.232Z,99.90
2018-08-18T10:10:47.767Z,99.90
2018-08-18T10:13:17.165Z,99.90
2018-08-18T10:15:45.899Z,99.90
2018-08-18T10:18:14.546Z,99.90
2018-08-18T10:20:48.436Z,99.90
2018-08-18T10:23:17.023Z,99.90
2018-08-18T10:25:46.004Z,99.90
2018-08-18T10:28:17.183Z,99.90
2018-08-18T10:30:45.779Z,99.90
2018-08-18T10:33:14.338Z,99.90
2018-08-18T10:35:43.769Z,99.90
2018-08-18T10:38:12.969Z,99.90
2018-08-18T10:40:41.813Z,99.90
2018-08-18T10:43:11.146Z,99.90
2018-08-18T10:45:40.034Z,99.90
2018-08-18T10:48:08.816Z,99.90
2018-08-18T10:51:46.166Z,99.90
2018-08-18T10:54:14.965Z,99.90
2018-08-18T10:56:43.499Z,99.90
2018-08-18T10:59:18.459Z,99.90
2018-08-18T11:02:01.843Z,99.90
2018-08-18T11:04:32.862Z,99.90
2018-08-18T11:07:01.621Z,99.90
2018-08-18T11:09:31.598Z,99.90
2018-08-18T11:12:01.111Z,99.90
2018-08-18T11:14:29.763Z,99.90
2018-08-18T11:16:58.686Z,99.90
2018-08-18T11:19:27.264Z,99.90
2018-08-18T11:22:07.078Z,99.90
2018-08-18T11:24:35.806Z,99.90
2018-08-18T11:27:04.526Z,99.90
2018-08-18T11:29:33.815Z,99.90
2018-08-18T11:32:02.561Z,99.90
2018-08-18T11:34:31.944Z,99.90
2018-08-18T11:37:05.290Z,99.90
2018-08-18T11:39:33.839Z,99.90
2018-08-18T11:42:04.071Z,99.80
2018-08-18T11:44:32.795Z,99.40
2018-08-18T11:47:01.713Z,99.30
2018-08-18T11:49:31.140Z,99.20
2018-08-18T11:51:59.879Z,99.10
2018-08-18T11:54:28.455Z,99.30
2018-08-18T11:56:57.352Z,98.50
2018-08-18T11:59:25.877Z,97.90
2018-08-18T12:01:56.031Z,96.60
2018-08-18T12:04:25.392Z,96.40
2018-08-18T12:06:57.591Z,97.00
2018-08-18T12:09:26.321Z,96.10
2018-08-18T12:11:55.888Z,96.50
2018-08-18T12:14:25.382Z,96.30
2018-08-18T12:16:54.033Z,95.80
2018-08-18T12:19:22.651Z,95.50
2018-08-18T12:21:51.474Z,95.50
2018-08-18T12:24:21.044Z,95.20
2018-08-18T12:27:01.261Z,94.90
2018-08-18T12:29:32.018Z,94.50
2018-08-18T12:32:00.803Z,94.10
2018-08-18T12:34:29.399Z,94.20
2018-08-18T12:36:58.431Z,94.10
2018-08-18T12:39:26.893Z,94.20
2018-08-18T12:41:55.525Z,92.20
2018-08-18T12:44:31.098Z,93.10
2018-08-18T12:47:01.845Z,92.80
2018-08-18T12:49:31.116Z,92.80
2018-08-18T12:51:59.737Z,92.40
2018-08-18T12:54:28.374Z,92.60
2018-08-18T12:56:56.998Z,92.40
2018-08-18T12:59:25.593Z,92.80
2018-08-18T13:01:55.102Z,92.20
2018-08-18T13:04:24.053Z,92.10
2018-08-18T13:06:54.054Z,92.00
2018-08-18T13:09:25.297Z,91.80
2018-08-18T13:11:55.085Z,91.90
2018-08-18T13:14:26.380Z,91.30
2018-08-18T13:16:55.088Z,91.60
2018-08-18T13:19:25.313Z,91.20
2018-08-18T13:21:53.964Z,91.50
2018-08-18T13:24:22.495Z,91.70
2018-08-18T13:26:51.246Z,91.10
2018-08-18T13:29:19.740Z,90.30
2018-08-18T13:31:48.310Z,90.30
2018-08-18T13:34:18.287Z,90.50
2018-08-18T13:36:47.552Z,91.10
2018-08-18T13:39:19.428Z,90.60
2018-08-18T13:41:49.037Z,90.30
2018-08-18T13:44:35.369Z,90.00
2018-08-18T13:47:03.917Z,89.00
2018-08-18T13:49:32.698Z,87.80
2018-08-18T13:52:02.174Z,88.30
2018-08-18T13:54:31.188Z,88.90
2018-08-18T13:56:59.710Z,88.90
2018-08-18T13:59:40.736Z,88.50
2018-08-18T14:02:10.309Z,87.40
2018-08-18T14:04:40.635Z,88.20
2018-08-18T14:07:09.542Z,87.40
2018-08-18T14:09:38.604Z,87.10
2018-08-18T14:12:17.355Z,87.50
2018-08-18T14:14:46.581Z,87.10
2018-08-18T14:17:15.954Z,86.10
2018-08-18T14:19:44.726Z,86.80
2018-08-18T14:22:13.466Z,86.60
2018-08-18T14:24:42.401Z,86.50
2018-08-18T14:27:18.176Z,86.50
2018-08-18T14:29:48.060Z,84.90
2018-08-18T14:32:22.161Z,85.50
2018-08-18T14:35:08.442Z,84.60
2018-08-18T14:37:39.050Z,83.80
2018-08-18T14:40:16.119Z,84.30
2018-08-18T14:42:46.787Z,83.20
2018-08-18T14:45:16.927Z,84.10
2018-08-18T14:47:48.165Z,83.10
2018-08-18T14:50:25.944Z,82.50
2018-08-18T14:52:54.916Z,82.90
2018-08-18T14:55:23.891Z,83.10
2018-08-18T14:57:59.530Z,82.80
2018-08-18T15:00:28.346Z,83.00
2018-08-18T15:02:58.348Z,83.30
2018-08-18T15:05:27.634Z,83.60
2018-08-18T15:07:57.787Z,82.00
2018-08-18T15:10:46.796Z,81.20
2018-08-18T15:13:16.918Z,81.50
2018-08-18T15:15:46.075Z,81.10
2018-08-18T15:18:16.836Z,81.10
2018-08-18T15:20:46.206Z,80.60
2018-08-18T15:23:15.729Z,80.60
2018-08-18T15:25:45.049Z,80.20
2018-08-18T15:28:14.917Z,80.30
2018-08-18T15:30:45.932Z,80.10
2018-08-18T15:33:16.648Z,80.10
2018-08-18T15:35:45.201Z,80.20
2018-08-18T15:38:13.953Z,80.40
2018-08-18T15:40:42.668Z,80.20
2018-08-18T15:43:11.205Z,79.30
2018-08-18T15:45:58.507Z,79.60
2018-08-18T15:48:27.595Z,78.80
2018-08-18T15:50:56.190Z,78.10
2018-08-18T15:53:36.633Z,78.50
2018-08-18T15:56:05.134Z,78.60
2018-08-18T15:58:34.102Z,77.30
2018-08-18T16:01:02.786Z,77.50
2018-08-18T16:03:31.387Z,77.20
2018-08-18T16:05:59.927Z,77.10
2018-08-18T16:08:28.418Z,76.00
2018-08-18T16:10:57.151Z,75.60
2018-08-18T16:13:25.847Z,74.70
2018-08-18T16:15:54.374Z,75.50
2018-08-18T16:18:22.957Z,74.70
2018-08-18T16:20:51.545Z,74.10
2018-08-18T16:23:24.492Z,73.70
2018-08-18T16:25:53.677Z,72.70
2018-08-18T16:28:31.158Z,73.20
2018-08-18T16:31:00.192Z,71.20
2018-08-18T16:33:28.755Z,70.10
2018-08-18T16:35:57.406Z,70.20
2018-08-18T16:38:26.195Z,69.80
2018-08-18T16:40:55.422Z,70.10
2018-08-18T16:43:24.110Z,69.30
2018-08-18T16:45:52.931Z,69.50
2018-08-18T16:48:21.693Z,68.90
2018-08-18T16:50:50.482Z,69.10
2018-08-18T16:53:19.030Z,68.60
2018-08-18T16:55:48.374Z,67.70
2018-08-18T16:58:19.803Z,67.80
2018-08-18T17:00:59.314Z,67.10
2018-08-18T17:03:37.513Z,66.50
2018-08-18T17:06:06.498Z,66.90
2018-08-18T17:08:35.248Z,66.40
2018-08-18T17:11:04.389Z,65.80
2018-08-18T17:13:35.279Z,65.50
2018-08-18T17:16:05.290Z,65.50
2018-08-18T17:18:34.287Z,65.10
2018-08-18T17:21:04.520Z,65.00
2018-08-18T17:23:34.769Z,64.50
2018-08-18T17:26:03.576Z,64.00
2018-08-18T17:28:33.804Z,64.40
2018-08-18T17:31:03.908Z,64.80
2018-08-18T17:33:32.951Z,64.40
2018-08-18T17:36:01.602Z,65.00
2018-08-18T17:38:30.551Z,64.90
2018-08-18T17:40:59.210Z,65.20
2018-08-18T17:43:27.921Z,65.30
2018-08-18T17:45:59.963Z,64.90
2018-08-18T17:48:29.723Z,64.80
2018-08-18T17:50:58.451Z,65.50
2018-08-18T17:53:27.291Z,65.20
2018-08-18T17:56:03.005Z,65.30
2018-08-18T17:58:32.267Z,65.90
2018-08-18T18:01:01.274Z,66.00
2018-08-18T18:03:29.773Z,65.80
2018-08-18T18:06:00.117Z,66.30
2018-08-18T18:08:28.652Z,66.10
2018-08-18T18:10:57.287Z,66.10
2018-08-18T18:13:29.722Z,66.10
2018-08-18T18:15:58.323Z,65.80
2018-08-18T18:19:00.123Z,66.00
2018-08-18T18:21:28.882Z,66.10
2018-08-18T18:23:58.340Z,66.60
2018-08-18T18:26:27.020Z,66.90
2018-08-18T18:28:55.771Z,67.00
2018-08-18T18:31:24.710Z,67.40
2018-08-18T18:33:57.480Z,68.00
2018-08-18T18:36:26.037Z,68.20
2018-08-18T18:38:55.593Z,68.70
2018-08-18T18:41:24.359Z,70.00
2018-08-18T18:44:02.182Z,69.60
2018-08-18T18:46:31.432Z,70.80
2018-08-18T18:49:00.489Z,72.10
2018-08-18T18:51:29.286Z,75.00
2018-08-18T18:53:58.463Z,73.50
2018-08-18T18:56:27.035Z,73.50
2018-08-18T18:58:55.551Z,75.00
2018-08-18T19:01:24.302Z,75.10
2018-08-18T19:03:52.884Z,75.40
2018-08-18T19:06:21.556Z,76.80
2018-08-18T19:08:58.637Z,75.80
2018-08-18T19:11:28.176Z,74.80
2018-08-18T19:13:59.259Z,77.20
2018-08-18T19:16:27.808Z,76.70
2018-08-18T19:18:56.564Z,77.40
2018-08-18T19:21:31.001Z,77.20
2018-08-18T19:24:00.247Z,80.00
2018-08-18T19:26:37.639Z,78.00
2018-08-18T19:29:06.635Z,78.40
2018-08-18T19:31:35.798Z,78.20
2018-08-18T19:34:12.432Z,76.20
2018-08-18T19:36:55.889Z,80.20
2018-08-18T19:39:26.387Z,82.20
2018-08-18T19:42:02.598Z,78.70
2018-08-18T19:44:31.534Z,79.90
2018-08-18T19:47:00.233Z,80.80
2018-08-18T19:49:38.569Z,82.00
2018-08-18T19:52:11.354Z,81.60
2018-08-18T19:54:41.895Z,82.30
2018-08-18T19:57:10.957Z,83.50
2018-08-18T19:59:40.172Z,84.10
2018-08-18T20:02:09.715Z,84.30
2018-08-18T20:04:38.720Z,84.40
2018-08-18T20:07:07.276Z,84.50
2018-08-18T20:09:35.807Z,84.50
2018-08-18T20:12:04.275Z,85.60
2018-08-18T20:14:32.802Z,86.50
2018-08-18T20:17:01.481Z,85.60
2018-08-18T20:19:30.234Z,84.20
2018-08-18T20:21:58.890Z,84.60
2018-08-18T20:24:27.508Z,85.20
2018-08-18T20:26:56.177Z,85.90
2018-08-18T20:29:25.076Z,87.30
2018-08-18T20:32:03.876Z,85.60
2018-08-18T20:34:32.478Z,88.20
2018-08-18T20:37:01.000Z,88.80
2018-08-18T20:39:30.203Z,86.10
2018-08-18T20:41:58.900Z,87.20
2018-08-18T20:44:28.959Z,86.20
2018-08-18T20:46:57.804Z,87.00
2018-08-18T20:49:26.325Z,88.50
2018-08-18T20:51:54.957Z,89.10
2018-08-18T20:54:23.488Z,89.30
2018-08-18T20:56:52.040Z,90.30
2018-08-18T20:59:20.520Z,90.30
2018-08-18T21:01:49.022Z,90.50
2018-08-18T21:04:17.574Z,90.80
2018-08-18T21:06:46.068Z,91.90
2018-08-18T21:09:32.289Z,92.10
2018-08-18T21:12:00.904Z,93.10
2018-08-18T21:14:29.951Z,92.40
2018-08-18T21:16:58.741Z,92.40
2018-08-18T21:19:27.791Z,92.60
2018-08-18T21:21:56.968Z,93.10
2018-08-18T21:24:25.383Z,94.60
2018-08-18T21:26:54.760Z,94.80
2018-08-18T21:29:24.652Z,95.10
2018-08-18T21:31:53.158Z,94.10
2018-08-18T21:34:21.652Z,93.90
2018-08-18T21:36:50.256Z,93.90
2018-08-18T21:39:18.820Z,93.80
2018-08-18T21:41:48.502Z,95.10
2018-08-18T21:44:17.155Z,94.60
2018-08-18T21:46:45.701Z,95.50
2018-08-18T21:49:14.398Z,95.90
2018-08-18T21:51:42.871Z,96.70
2018-08-18T21:54:11.468Z,96.90
2018-08-18T21:56:42.298Z,97.50
2018-08-18T21:59:12.217Z,97.40
2018-08-18T22:01:40.812Z,96.70
2018-08-18T22:04:09.784Z,98.30
2018-08-18T22:06:38.877Z,97.70
2018-08-18T22:09:21.409Z,98.40
2018-08-18T22:11:50.288Z,98.70
2018-08-18T22:14:19.242Z,99.00
2018-08-18T22:16:53.211Z,99.00
2018-08-18T22:19:22.170Z,99.00
2018-08-18T22:21:50.730Z,98.90
2018-08-18T22:24:19.280Z,98.70
2018-08-18T22:26:47.929Z,98.40
2018-08-18T22:29:16.518Z,99.90
2018-08-18T22:31:45.078Z,99.40
2018-08-18T22:34:13.772Z,99.30
2018-08-18T22:36:42.277Z,99.30
2018-08-18T22:39:11.555Z,99.30
2018-08-18T22:41:43.100Z,99.50
2018-08-18T22:44:11.628Z,99.80
2018-08-18T22:46:40.145Z,99.90
2018-08-18T22:49:08.675Z,99.90
2018-08-18T22:51:37.252Z,99.90
2018-08-18T22:54:05.844Z,99.90
2018-08-18T22:56:35.328Z,99.90
2018-08-18T22:59:05.591Z,99.90
2018-08-18T23:01:35.565Z,99.90
2018-08-18T23:04:07.362Z,99.90
2018-08-18T23:06:37.042Z,99.90
2018-08-18T23:09:06.957Z,99.90
2018-08-18T23:11:35.467Z,99.90
2018-08-18T23:14:04.039Z,99.90
2018-08-18T23:16:32.578Z,99.90
2018-08-18T23:19:01.078Z,99.90
2018-08-18T23:21:30.580Z,99.90
2018-08-18T23:24:01.573Z,99.90
2018-08-18T23:26:30.126Z,99.90
2018-08-18T23:28:58.666Z,99.90
2018-08-18T23:31:27.134Z,99.90
2018-08-18T23:33:55.679Z,99.90
2018-08-18T23:36:24.222Z,99.90
2018-08-18T23:38:57.698Z,99.90
2018-08-18T23:41:26.330Z,99.90
2018-08-18T23:43:54.989Z,99.90
2018-08-18T23:46:23.553Z,99.90
2018-08-18T23:48:52.674Z,99.90
2018-08-18T23:51:26.294Z,99.90
2018-08-18T23:53:54.957Z,99.90
2018-08-18T23:56:23.591Z,99.90
2018-08-18T23:58:52.103Z,99.90
